createdAt,value
2019-03-23T00:00:19.015Z,55.60
2019-03-23T00:00:50.251Z,55.60
2019-03-23T00:01:21.959Z,55.70
2019-03-23T00:01:53.248Z,55.70
2019-03-23T00:02:24.560Z,55.60
2019-03-23T00:02:55.871Z,55.70
2019-03-23T00:03:27.225Z,55.60
2019-03-23T00:03:58.501Z,55.60
2019-03-23T00:04:29.866Z,55.60
2019-03-23T00:05:01.249Z,55.70
2019-03-23T00:05:32.632Z,55.70
2019-03-23T00:06:03.971Z,55.70
2019-03-23T00:06:35.317Z,55.70
2019-03-23T00:07:07.674Z,55.70
2019-03-23T00:07:39.001Z,55.70
2019-03-23T00:08:11.472Z,55.70
2019-03-23T00:08:42.677Z,55.70
2019-03-23T00:09:14.546Z,55.70
2019-03-23T00:09:45.833Z,55.70
2019-03-23T00:10:17.190Z,55.70
2019-03-23T00:10:48.640Z,55.80
2019-03-23T00:11:19.936Z,55.70
2019-03-23T00:11:51.231Z,55.70
2019-03-23T00:12:22.566Z,55.80
2019-03-23T00:12:53.866Z,55.80
2019-03-23T00:13:25.471Z,55.70
2019-03-23T00:13:56.645Z,55.70
2019-03-23T00:14:27.896Z,55.70
2019-03-23T00:14:59.525Z,55.80
2019-03-23T00:15:31.211Z,55.80
2019-03-23T00:16:02.425Z,55.80
2019-03-23T00:16:33.675Z,55.80
2019-03-23T00:17:04.973Z,55.80
2019-03-23T00:17:36.323Z,55.80
2019-03-23T00:18:07.633Z,55.80
2019-03-23T00:18:38.880Z,55.70
2019-03-23T00:19:10.490Z,55.90
2019-03-23T00:19:41.849Z,55.70
2019-03-23T00:20:13.431Z,55.80
2019-03-23T00:20:44.992Z,55.70
2019-03-23T00:21:16.260Z,55.60
2019-03-23T00:21:47.529Z,55.60
2019-03-23T00:22:19.126Z,55.60
2019-03-23T00:22:50.416Z,55.60
2019-03-23T00:23:21.796Z,55.60
2019-03-23T00:23:53.205Z,55.60
2019-03-23T00:24:24.457Z,55.60
2019-03-23T00:24:56.096Z,55.60
2019-03-23T00:25:27.333Z,55.60
2019-03-23T00:25:58.655Z,55.60
2019-03-23T00:26:29.899Z,55.50
2019-03-23T00:27:01.225Z,55.50
2019-03-23T00:27:32.864Z,55.50
2019-03-23T00:28:04.219Z,55.60
2019-03-23T00:28:35.444Z,56.20
2019-03-23T00:29:06.685Z,55.70
2019-03-23T00:29:37.989Z,55.60
2019-03-23T00:30:09.722Z,55.60
2019-03-23T00:30:41.053Z,55.60
2019-03-23T00:31:12.229Z,55.70
2019-03-23T00:31:43.893Z,55.60
2019-03-23T00:32:15.278Z,55.60
2019-03-23T00:32:46.590Z,55.60
2019-03-23T00:33:17.880Z,55.60
2019-03-23T00:33:49.193Z,55.60
2019-03-23T00:34:20.523Z,55.60
2019-03-23T00:34:52.195Z,55.60
2019-03-23T00:35:24.273Z,55.60
2019-03-23T00:35:56.109Z,55.60
2019-03-23T00:36:27.535Z,55.60
2019-03-23T00:36:59.146Z,55.60
2019-03-23T00:37:30.589Z,55.60
2019-03-23T00:38:01.723Z,55.60
2019-03-23T00:38:32.919Z,55.60
2019-03-23T00:39:04.159Z,55.60
2019-03-23T00:39:35.339Z,55.60
2019-03-23T00:40:06.923Z,55.60
2019-03-23T00:40:38.159Z,55.60
2019-03-23T00:41:09.415Z,55.60
2019-03-23T00:41:40.615Z,55.70
2019-03-23T00:42:11.795Z,55.60
2019-03-23T00:42:42.993Z,55.70
2019-03-23T00:43:14.216Z,55.70
2019-03-23T00:43:45.424Z,55.70
2019-03-23T00:44:16.605Z,55.60
2019-03-23T00:44:47.776Z,55.70
2019-03-23T00:45:19.293Z,55.60
2019-03-23T00:45:50.469Z,55.70
2019-03-23T00:46:21.659Z,55.70
2019-03-23T00:46:52.872Z,55.60
2019-03-23T00:47:24.124Z,55.60
2019-03-23T00:47:55.297Z,55.70
2019-03-23T00:48:26.502Z,55.70
2019-03-23T00:48:57.672Z,55.70
2019-03-23T00:49:28.901Z,55.70
2019-03-23T00:50:00.306Z,55.70
2019-03-23T00:50:31.589Z,55.70
2019-03-23T00:51:02.765Z,55.70
2019-03-23T00:51:33.937Z,55.60
2019-03-23T00:52:05.144Z,56.40
2019-03-23T00:52:36.387Z,55.60
2019-03-23T00:53:07.569Z,55.60
2019-03-23T00:53:39.159Z,55.50
2019-03-23T00:54:10.410Z,55.50
2019-03-23T00:54:41.593Z,55.50
2019-03-23T00:55:12.774Z,55.50
2019-03-23T00:55:43.956Z,55.50
2019-03-23T00:56:16.595Z,55.50
2019-03-23T00:56:47.926Z,55.10
2019-03-23T00:57:19.426Z,55.60
2019-03-23T00:57:50.959Z,55.50
2019-03-23T00:58:22.244Z,55.50
2019-03-23T00:58:53.390Z,55.50
2019-03-23T00:59:24.863Z,55.40
2019-03-23T00:59:56.403Z,55.50
2019-03-23T01:00:27.588Z,55.50
2019-03-23T01:00:58.759Z,55.50
2019-03-23T01:01:29.938Z,55.50
2019-03-23T01:02:01.120Z,55.50
2019-03-23T01:02:32.415Z,55.50
2019-03-23T01:03:03.667Z,55.50
2019-03-23T01:03:34.843Z,55.50
2019-03-23T01:04:06.027Z,55.60
2019-03-23T01:04:37.287Z,55.50
2019-03-23T01:05:08.828Z,55.60
2019-03-23T01:05:40.009Z,55.50
2019-03-23T01:06:11.241Z,55.60
2019-03-23T01:06:51.782Z,55.50
2019-03-23T01:07:15.332Z,55.50
2019-03-23T01:07:46.533Z,55.60
2019-03-23T01:08:17.804Z,55.60
2019-03-23T01:08:49.409Z,55.50
2019-03-23T01:09:20.937Z,55.50
2019-03-23T01:09:52.192Z,55.50
2019-03-23T01:10:23.379Z,55.50
2019-03-23T01:10:54.549Z,55.50
2019-03-23T01:11:26.077Z,55.60
2019-03-23T01:11:57.613Z,55.50
2019-03-23T01:12:28.793Z,55.60
2019-03-23T01:13:00.010Z,55.60
2019-03-23T01:13:31.213Z,55.50
2019-03-23T01:14:02.752Z,55.50
2019-03-23T01:14:34.031Z,55.60
2019-03-23T01:15:05.191Z,55.50
2019-03-23T01:15:36.385Z,55.50
2019-03-23T01:16:07.886Z,55.60
2019-03-23T01:16:39.424Z,55.50
2019-03-23T01:17:10.610Z,55.60
2019-03-23T01:17:42.108Z,55.60
2019-03-23T01:18:13.354Z,55.60
2019-03-23T01:18:44.813Z,55.70
2019-03-23T01:19:16.121Z,55.60
2019-03-23T01:19:47.326Z,55.60
2019-03-23T01:20:18.502Z,55.60
2019-03-23T01:20:50.126Z,55.50
2019-03-23T01:21:21.499Z,55.50
2019-03-23T01:21:52.679Z,55.60
2019-03-23T01:22:23.846Z,55.50
2019-03-23T01:22:55.024Z,55.50
2019-03-23T01:23:26.206Z,55.50
2019-03-23T01:23:57.417Z,55.50
2019-03-23T01:24:28.587Z,55.40
2019-03-23T01:24:59.844Z,55.40
2019-03-23T01:25:31.017Z,55.40
2019-03-23T01:26:02.606Z,55.40
2019-03-23T01:26:33.875Z,55.40
2019-03-23T01:27:05.056Z,55.40
2019-03-23T01:27:36.309Z,55.40
2019-03-23T01:28:07.485Z,55.40
2019-03-23T01:28:38.688Z,55.50
2019-03-23T01:29:09.888Z,55.40
2019-03-23T01:29:41.360Z,55.40
2019-03-23T01:30:12.573Z,55.40
2019-03-23T01:30:43.748Z,55.40
2019-03-23T01:31:14.969Z,55.50
2019-03-23T01:31:46.145Z,55.40
2019-03-23T01:32:17.334Z,55.40
2019-03-23T01:32:48.511Z,55.40
2019-03-23T01:33:19.696Z,55.40
2019-03-23T01:33:50.871Z,55.50
2019-03-23T01:34:22.045Z,55.40
2019-03-23T01:34:53.681Z,55.40
2019-03-23T01:35:24.881Z,55.50
2019-03-23T01:35:56.063Z,55.40
2019-03-23T01:36:27.238Z,56.10
2019-03-23T01:37:02.772Z,55.50
2019-03-23T01:37:31.310Z,55.40
2019-03-23T01:38:02.914Z,55.50
2019-03-23T01:38:34.098Z,55.50
2019-03-23T01:39:05.270Z,55.50
2019-03-23T01:39:36.462Z,55.40
2019-03-23T01:40:07.643Z,55.50
2019-03-23T01:40:38.848Z,55.50
2019-03-23T01:41:10.011Z,55.50
2019-03-23T01:41:41.201Z,55.50
2019-03-23T01:42:12.382Z,55.40
2019-03-23T01:42:43.559Z,55.50
2019-03-23T01:43:14.735Z,55.50
2019-03-23T01:43:45.915Z,55.50
2019-03-23T01:44:17.115Z,55.50
2019-03-23T01:44:48.291Z,55.50
2019-03-23T01:45:19.501Z,55.50
2019-03-23T01:45:50.667Z,55.50
2019-03-23T01:46:21.851Z,55.50
2019-03-23T01:46:53.019Z,55.60
2019-03-23T01:47:24.556Z,55.50
2019-03-23T01:47:55.979Z,55.50
2019-03-23T01:48:27.164Z,55.50
2019-03-23T01:48:58.689Z,55.50
2019-03-23T01:49:29.868Z,55.50
2019-03-23T01:50:01.052Z,55.50
2019-03-23T01:50:32.256Z,55.50
2019-03-23T01:51:03.456Z,55.50
2019-03-23T01:51:34.693Z,55.40
2019-03-23T01:52:05.870Z,55.40
2019-03-23T01:52:37.213Z,55.30
2019-03-23T01:53:08.394Z,55.40
2019-03-23T01:53:39.558Z,55.30
2019-03-23T01:54:10.736Z,55.30
2019-03-23T01:54:41.916Z,55.40
2019-03-23T01:55:13.382Z,55.30
2019-03-23T01:55:44.586Z,55.50
2019-03-23T01:56:15.805Z,55.30
2019-03-23T01:56:46.986Z,55.30
2019-03-23T01:57:18.624Z,55.30
2019-03-23T01:57:49.867Z,55.30
2019-03-23T01:58:21.034Z,55.30
2019-03-23T01:58:52.214Z,55.30
2019-03-23T01:59:23.392Z,55.30
2019-03-23T01:59:54.876Z,55.30
2019-03-23T02:00:26.053Z,55.30
2019-03-23T02:00:57.244Z,55.30
2019-03-23T02:01:28.422Z,55.30
2019-03-23T02:01:59.706Z,55.30
2019-03-23T02:02:30.898Z,55.30
2019-03-23T02:03:02.085Z,55.30
2019-03-23T02:03:33.402Z,55.30
2019-03-23T02:04:04.653Z,55.30
2019-03-23T02:04:35.872Z,55.40
2019-03-23T02:05:07.082Z,55.30
2019-03-23T02:05:38.328Z,55.30
2019-03-23T02:06:09.867Z,55.40
2019-03-23T02:06:41.408Z,55.30
2019-03-23T02:07:14.015Z,55.30
2019-03-23T02:07:45.449Z,55.30
2019-03-23T02:08:16.675Z,56.00
2019-03-23T02:08:47.851Z,55.40
2019-03-23T02:09:19.039Z,55.40
2019-03-23T02:09:50.208Z,55.50
2019-03-23T02:10:21.383Z,55.40
2019-03-23T02:10:52.570Z,55.50
2019-03-23T02:11:23.884Z,55.50
2019-03-23T02:11:55.473Z,55.40
2019-03-23T02:12:26.681Z,55.40
2019-03-23T02:12:57.879Z,55.40
2019-03-23T02:13:29.112Z,55.50
2019-03-23T02:14:00.605Z,55.40
2019-03-23T02:14:31.892Z,55.40
2019-03-23T02:15:03.041Z,55.40
2019-03-23T02:15:34.233Z,55.40
2019-03-23T02:16:05.430Z,55.40
2019-03-23T02:16:36.607Z,55.40
2019-03-23T02:17:07.790Z,55.40
2019-03-23T02:17:38.967Z,55.40
2019-03-23T02:18:10.159Z,55.30
2019-03-23T02:18:41.702Z,55.30
2019-03-23T02:19:12.983Z,55.30
2019-03-23T02:19:44.186Z,55.30
2019-03-23T02:20:15.730Z,55.30
2019-03-23T02:20:46.954Z,55.30
2019-03-23T02:21:18.610Z,56.00
2019-03-23T02:21:49.794Z,55.20
2019-03-23T02:22:20.963Z,55.20
2019-03-23T02:22:52.615Z,55.20
2019-03-23T02:23:23.787Z,55.20
2019-03-23T02:23:54.996Z,55.20
2019-03-23T02:24:26.175Z,55.90
2019-03-23T02:24:57.351Z,55.20
2019-03-23T02:25:28.605Z,55.20
2019-03-23T02:25:59.776Z,55.20
2019-03-23T02:26:31.310Z,55.20
2019-03-23T02:27:02.484Z,55.20
2019-03-23T02:27:33.699Z,55.20
2019-03-23T02:28:05.208Z,55.10
2019-03-23T02:28:36.386Z,55.80
2019-03-23T02:29:07.556Z,55.20
2019-03-23T02:29:38.728Z,55.20
2019-03-23T02:30:09.914Z,55.20
2019-03-23T02:30:41.178Z,55.20
2019-03-23T02:31:12.366Z,55.20
2019-03-23T02:31:43.841Z,55.20
2019-03-23T02:32:15.018Z,55.30
2019-03-23T02:32:46.219Z,55.90
2019-03-23T02:33:17.396Z,55.20
2019-03-23T02:33:48.598Z,55.20
2019-03-23T02:34:20.203Z,55.20
2019-03-23T02:34:51.378Z,55.30
2019-03-23T02:35:22.553Z,55.90
2019-03-23T02:35:53.854Z,55.20
2019-03-23T02:36:25.028Z,55.30
2019-03-23T02:36:56.285Z,55.20
2019-03-23T02:37:28.274Z,55.30
2019-03-23T02:37:59.626Z,55.30
2019-03-23T02:38:30.811Z,55.30
2019-03-23T02:39:01.982Z,55.30
2019-03-23T02:39:33.214Z,55.30
2019-03-23T02:40:04.783Z,55.30
2019-03-23T02:40:35.969Z,55.30
2019-03-23T02:41:07.148Z,55.90
2019-03-23T02:41:38.693Z,55.30
2019-03-23T02:42:09.864Z,55.30
2019-03-23T02:42:41.053Z,55.30
2019-03-23T02:43:12.215Z,55.30
2019-03-23T02:43:43.421Z,55.30
2019-03-23T02:44:14.639Z,55.30
2019-03-23T02:44:45.819Z,55.30
2019-03-23T02:45:16.999Z,55.30
2019-03-23T02:45:48.174Z,55.30
2019-03-23T02:46:19.384Z,55.30
2019-03-23T02:46:50.570Z,55.30
2019-03-23T02:47:21.744Z,55.30
2019-03-23T02:47:53.321Z,55.30
2019-03-23T02:48:24.483Z,55.30
2019-03-23T02:48:55.661Z,55.30
2019-03-23T02:49:26.839Z,55.30
2019-03-23T02:49:58.019Z,55.20
2019-03-23T02:50:29.194Z,55.30
2019-03-23T02:51:00.375Z,55.30
2019-03-23T02:51:31.713Z,55.20
2019-03-23T02:52:02.900Z,55.30
2019-03-23T02:52:34.178Z,55.20
2019-03-23T02:53:05.352Z,55.80
2019-03-23T02:53:36.532Z,55.10
2019-03-23T02:54:07.711Z,55.10
2019-03-23T02:54:39.258Z,55.10
2019-03-23T02:55:10.445Z,55.10
2019-03-23T02:55:41.622Z,55.20
2019-03-23T02:56:13.127Z,55.10
2019-03-23T02:56:44.631Z,55.10
2019-03-23T02:57:15.809Z,55.10
2019-03-23T02:57:47.014Z,55.10
2019-03-23T02:58:18.235Z,55.10
2019-03-23T02:58:49.417Z,55.10
2019-03-23T02:59:20.923Z,55.10
2019-03-23T02:59:52.121Z,55.10
2019-03-23T03:00:23.302Z,55.10
2019-03-23T03:00:54.478Z,55.80
2019-03-23T03:01:25.745Z,55.10
2019-03-23T03:01:56.927Z,55.20
2019-03-23T03:02:28.183Z,55.10
2019-03-23T03:02:59.355Z,55.20
2019-03-23T03:03:30.523Z,55.80
2019-03-23T03:04:01.701Z,55.80
2019-03-23T03:04:33.207Z,55.20
2019-03-23T03:05:04.465Z,55.10
2019-03-23T03:05:35.992Z,55.20
2019-03-23T03:06:07.159Z,55.10
2019-03-23T03:06:38.336Z,55.20
2019-03-23T03:07:09.524Z,55.20
2019-03-23T03:07:43.520Z,55.30
2019-03-23T03:08:13.639Z,55.20
2019-03-23T03:08:45.220Z,55.20
2019-03-23T03:09:16.397Z,55.20
2019-03-23T03:09:47.574Z,55.20
2019-03-23T03:10:18.784Z,55.20
2019-03-23T03:10:50.259Z,55.30
2019-03-23T03:11:21.449Z,55.30
2019-03-23T03:11:52.627Z,55.30
2019-03-23T03:12:23.801Z,55.30
2019-03-23T03:12:55.000Z,55.30
2019-03-23T03:13:26.181Z,55.30
2019-03-23T03:13:57.356Z,55.20
2019-03-23T03:14:28.550Z,56.00
2019-03-23T03:15:00.014Z,55.20
2019-03-23T03:15:31.186Z,55.20
2019-03-23T03:16:02.377Z,55.20
2019-03-23T03:16:33.619Z,55.10
2019-03-23T03:17:04.869Z,55.10
2019-03-23T03:17:36.046Z,55.10
2019-03-23T03:18:07.235Z,55.00
2019-03-23T03:18:38.409Z,55.10
2019-03-23T03:19:09.611Z,55.10
2019-03-23T03:19:40.870Z,55.10
2019-03-23T03:20:12.046Z,55.10
2019-03-23T03:20:43.233Z,55.20
2019-03-23T03:21:14.483Z,55.10
2019-03-23T03:21:45.668Z,55.10
2019-03-23T03:22:16.842Z,55.20
2019-03-23T03:22:48.110Z,55.10
2019-03-23T03:23:19.294Z,55.10
2019-03-23T03:23:50.496Z,55.00
2019-03-23T03:24:21.713Z,55.10
2019-03-23T03:24:52.879Z,55.00
2019-03-23T03:25:24.157Z,55.70
2019-03-23T03:25:55.323Z,54.60
2019-03-23T03:26:26.499Z,55.00
2019-03-23T03:26:57.680Z,55.00
2019-03-23T03:27:28.848Z,55.10
2019-03-23T03:28:01.143Z,55.00
2019-03-23T03:28:32.331Z,55.10
2019-03-23T03:29:03.800Z,55.00
2019-03-23T03:29:34.964Z,55.70
2019-03-23T03:30:06.148Z,55.00
2019-03-23T03:30:37.327Z,55.00
2019-03-23T03:31:08.538Z,55.10
2019-03-23T03:31:39.757Z,55.10
2019-03-23T03:32:10.933Z,55.00
2019-03-23T03:32:42.114Z,55.00
2019-03-23T03:33:13.362Z,55.70
2019-03-23T03:33:44.549Z,55.00
2019-03-23T03:34:15.807Z,55.10
2019-03-23T03:34:47.193Z,54.80
2019-03-23T03:35:18.370Z,55.20
2019-03-23T03:35:49.544Z,55.10
2019-03-23T03:36:20.726Z,55.20
2019-03-23T03:36:51.902Z,55.20
2019-03-23T03:37:23.081Z,55.20
2019-03-23T03:37:56.910Z,55.10
2019-03-23T03:38:27.237Z,55.20
2019-03-23T03:38:58.414Z,55.10
2019-03-23T03:39:29.594Z,55.10
2019-03-23T03:40:00.774Z,55.20
2019-03-23T03:40:32.394Z,55.10
2019-03-23T03:41:03.587Z,55.20
2019-03-23T03:41:34.774Z,55.10
2019-03-23T03:42:05.944Z,55.10
2019-03-23T03:42:37.128Z,55.10
2019-03-23T03:43:08.299Z,55.10
2019-03-23T03:43:39.482Z,55.20
2019-03-23T03:44:10.971Z,55.20
2019-03-23T03:44:42.515Z,55.20
2019-03-23T03:45:13.759Z,55.20
2019-03-23T03:45:44.971Z,55.30
2019-03-23T03:46:16.159Z,55.20
2019-03-23T03:46:47.329Z,55.20
2019-03-23T03:47:18.560Z,55.20
2019-03-23T03:47:49.735Z,55.10
2019-03-23T03:48:20.914Z,55.20
2019-03-23T03:48:52.092Z,55.00
2019-03-23T03:49:23.281Z,55.00
2019-03-23T03:49:54.625Z,54.90
2019-03-23T03:50:26.067Z,54.90
2019-03-23T03:50:57.262Z,54.90
2019-03-23T03:51:28.436Z,54.90
2019-03-23T03:51:59.620Z,54.90
2019-03-23T03:52:30.803Z,54.90
2019-03-23T03:53:01.987Z,54.90
2019-03-23T03:53:33.557Z,54.90
2019-03-23T03:54:04.738Z,54.90
2019-03-23T03:54:35.923Z,54.80
2019-03-23T03:55:07.096Z,54.80
2019-03-23T03:55:38.300Z,54.80
2019-03-23T03:56:09.478Z,54.80
2019-03-23T03:56:40.651Z,54.80
2019-03-23T03:57:11.832Z,54.80
2019-03-23T03:57:43.422Z,54.80
2019-03-23T03:58:14.592Z,54.90
2019-03-23T03:58:45.773Z,54.90
2019-03-23T03:59:16.989Z,54.90
2019-03-23T03:59:48.219Z,54.90
2019-03-23T04:00:19.418Z,54.90
2019-03-23T04:00:50.625Z,54.90
2019-03-23T04:01:21.858Z,54.90
2019-03-23T04:01:53.051Z,54.70
2019-03-23T04:02:24.226Z,54.90
2019-03-23T04:02:55.406Z,55.00
2019-03-23T04:03:26.643Z,55.00
2019-03-23T04:03:57.842Z,55.60
2019-03-23T04:04:29.018Z,55.00
2019-03-23T04:05:00.486Z,54.90
2019-03-23T04:05:31.751Z,54.90
2019-03-23T04:06:03.032Z,55.00
2019-03-23T04:06:34.222Z,55.00
2019-03-23T04:07:05.431Z,55.00
2019-03-23T04:07:36.619Z,55.00
2019-03-23T04:08:11.731Z,55.00
2019-03-23T04:08:40.995Z,55.00
2019-03-23T04:09:12.174Z,55.00
2019-03-23T04:09:43.347Z,55.00
2019-03-23T04:10:14.519Z,55.00
2019-03-23T04:10:45.999Z,55.10
2019-03-23T04:11:17.172Z,55.10
2019-03-23T04:11:48.664Z,55.10
2019-03-23T04:12:19.855Z,55.30
2019-03-23T04:12:51.403Z,55.00
2019-03-23T04:13:22.589Z,55.10
2019-03-23T04:13:54.077Z,55.00
2019-03-23T04:14:25.346Z,54.90
2019-03-23T04:14:56.561Z,54.90
2019-03-23T04:15:28.109Z,54.80
2019-03-23T04:15:59.313Z,54.80
2019-03-23T04:16:30.553Z,54.80
2019-03-23T04:17:02.086Z,54.80
2019-03-23T04:17:33.445Z,54.80
2019-03-23T04:18:04.622Z,54.70
2019-03-23T04:18:35.801Z,54.70
2019-03-23T04:19:06.983Z,55.20
2019-03-23T04:19:38.162Z,54.70
2019-03-23T04:20:09.691Z,54.80
2019-03-23T04:20:40.925Z,54.70
2019-03-23T04:21:12.140Z,54.70
2019-03-23T04:21:43.318Z,54.70
2019-03-23T04:22:14.497Z,54.80
2019-03-23T04:22:45.722Z,54.80
2019-03-23T04:23:16.902Z,54.80
2019-03-23T04:23:48.082Z,54.80
2019-03-23T04:24:19.574Z,54.80
2019-03-23T04:24:50.751Z,54.80
2019-03-23T04:25:21.929Z,54.80
2019-03-23T04:25:53.106Z,54.80
2019-03-23T04:26:24.307Z,54.80
2019-03-23T04:26:55.538Z,54.90
2019-03-23T04:27:27.056Z,54.80
2019-03-23T04:27:58.306Z,54.80
2019-03-23T04:28:29.484Z,54.90
2019-03-23T04:29:00.660Z,54.90
2019-03-23T04:29:31.852Z,54.90
2019-03-23T04:30:03.062Z,54.90
2019-03-23T04:30:34.308Z,55.00
2019-03-23T04:31:05.484Z,54.90
2019-03-23T04:31:37.007Z,55.00
2019-03-23T04:32:08.567Z,54.90
2019-03-23T04:32:39.767Z,54.50
2019-03-23T04:33:11.307Z,54.90
2019-03-23T04:33:42.501Z,54.90
2019-03-23T04:34:13.676Z,54.90
2019-03-23T04:34:45.213Z,55.00
2019-03-23T04:35:16.752Z,54.90
2019-03-23T04:35:47.996Z,54.90
2019-03-23T04:36:19.172Z,55.00
2019-03-23T04:36:50.349Z,54.90
2019-03-23T04:37:21.525Z,54.90
2019-03-23T04:37:52.742Z,54.90
2019-03-23T04:38:23.949Z,54.90
2019-03-23T04:38:55.140Z,54.90
2019-03-23T04:39:26.314Z,54.90
2019-03-23T04:39:57.493Z,55.00
2019-03-23T04:40:28.977Z,54.90
2019-03-23T04:41:00.149Z,54.90
2019-03-23T04:41:31.733Z,54.90
2019-03-23T04:42:02.955Z,54.90
2019-03-23T04:42:34.140Z,54.90
2019-03-23T04:43:05.333Z,54.90
2019-03-23T04:43:36.878Z,54.90
2019-03-23T04:44:08.131Z,54.80
2019-03-23T04:44:39.366Z,54.80
2019-03-23T04:45:10.581Z,54.80
2019-03-23T04:45:42.120Z,54.80
2019-03-23T04:46:13.322Z,54.70
2019-03-23T04:46:44.489Z,54.70
2019-03-23T04:47:15.674Z,54.70
2019-03-23T04:47:46.846Z,54.70
2019-03-23T04:48:18.061Z,54.70
2019-03-23T04:48:49.255Z,54.70
2019-03-23T04:49:20.454Z,54.70
2019-03-23T04:49:51.635Z,54.60
2019-03-23T04:50:22.820Z,54.60
2019-03-23T04:50:53.999Z,54.60
2019-03-23T04:51:25.218Z,54.60
2019-03-23T04:51:56.433Z,54.70
2019-03-23T04:52:27.609Z,54.60
2019-03-23T04:52:58.847Z,54.60
2019-03-23T04:53:30.043Z,54.60
2019-03-23T04:54:01.211Z,54.70
2019-03-23T04:54:32.411Z,54.60
2019-03-23T04:55:03.583Z,54.60
2019-03-23T04:55:35.120Z,54.60
2019-03-23T04:56:06.304Z,54.60
2019-03-23T04:56:37.788Z,54.60
2019-03-23T04:57:09.332Z,54.60
2019-03-23T04:57:40.558Z,54.70
2019-03-23T04:58:11.846Z,54.70
2019-03-23T04:58:43.332Z,54.70
2019-03-23T04:59:14.513Z,54.70
2019-03-23T04:59:45.694Z,54.70
2019-03-23T05:00:16.897Z,54.70
2019-03-23T05:00:48.092Z,54.70
2019-03-23T05:01:19.277Z,54.70
2019-03-23T05:01:50.470Z,54.80
2019-03-23T05:02:21.649Z,54.80
2019-03-23T05:02:52.848Z,54.80
2019-03-23T05:03:24.033Z,54.80
2019-03-23T05:03:55.211Z,54.80
2019-03-23T05:04:26.389Z,54.80
2019-03-23T05:04:57.602Z,54.80
2019-03-23T05:05:28.778Z,54.90
2019-03-23T05:05:59.951Z,55.00
2019-03-23T05:06:31.125Z,54.90
2019-03-23T05:07:02.298Z,55.00
2019-03-23T05:07:33.774Z,54.90
2019-03-23T05:08:05.000Z,55.00
2019-03-23T05:08:36.170Z,54.90
2019-03-23T05:09:07.375Z,54.90
2019-03-23T05:09:38.558Z,54.80
2019-03-23T05:10:09.730Z,54.80
2019-03-23T05:10:41.175Z,54.70
2019-03-23T05:11:12.351Z,54.70
2019-03-23T05:11:43.838Z,54.60
2019-03-23T05:12:15.011Z,54.60
2019-03-23T05:12:46.182Z,54.60
2019-03-23T05:13:17.394Z,54.60
2019-03-23T05:13:48.643Z,54.60
2019-03-23T05:14:19.860Z,54.50
2019-03-23T05:14:51.099Z,54.60
2019-03-23T05:15:22.276Z,54.50
2019-03-23T05:15:53.447Z,55.20
2019-03-23T05:16:24.637Z,54.50
2019-03-23T05:16:55.808Z,54.40
2019-03-23T05:17:26.984Z,54.40
2019-03-23T05:17:58.521Z,54.40
2019-03-23T05:18:29.723Z,54.50
2019-03-23T05:19:00.956Z,54.50
2019-03-23T05:19:32.421Z,54.60
2019-03-23T05:20:03.601Z,54.60
2019-03-23T05:20:34.778Z,54.50
2019-03-23T05:21:05.948Z,54.50
2019-03-23T05:21:37.153Z,54.50
2019-03-23T05:22:08.889Z,54.60
2019-03-23T05:22:40.071Z,54.60
2019-03-23T05:23:11.260Z,54.60
2019-03-23T05:23:42.461Z,54.60
2019-03-23T05:24:13.657Z,54.60
2019-03-23T05:24:44.833Z,54.90
2019-03-23T05:25:16.077Z,54.60
2019-03-23T05:25:47.281Z,54.70
2019-03-23T05:26:18.460Z,54.60
2019-03-23T05:26:49.726Z,54.60
2019-03-23T05:27:20.902Z,54.60
2019-03-23T05:27:52.100Z,54.60
2019-03-23T05:28:23.339Z,54.60
2019-03-23T05:28:54.507Z,54.60
2019-03-23T05:29:25.675Z,54.70
2019-03-23T05:29:56.863Z,54.60
2019-03-23T05:30:28.030Z,54.70
2019-03-23T05:30:59.561Z,54.60
2019-03-23T05:31:30.814Z,54.60
2019-03-23T05:32:02.038Z,54.70
2019-03-23T05:32:33.215Z,54.70
2019-03-23T05:33:04.667Z,54.70
2019-03-23T05:33:36.206Z,54.70
2019-03-23T05:34:07.408Z,54.70
2019-03-23T05:34:38.575Z,54.80
2019-03-23T05:35:10.988Z,54.90
2019-03-23T05:35:42.564Z,54.80
2019-03-23T05:36:15.377Z,54.80
2019-03-23T05:36:46.979Z,54.80
2019-03-23T05:37:18.232Z,54.80
2019-03-23T05:37:49.411Z,54.80
2019-03-23T05:38:20.625Z,54.80
2019-03-23T05:38:52.216Z,54.80
2019-03-23T05:39:23.390Z,54.80
2019-03-23T05:39:54.568Z,54.80
2019-03-23T05:40:26.218Z,54.80
2019-03-23T05:40:57.400Z,54.80
2019-03-23T05:41:30.813Z,54.70
2019-03-23T05:42:01.488Z,54.80
2019-03-23T05:42:32.673Z,54.80
2019-03-23T05:43:03.846Z,54.60
2019-03-23T05:43:35.357Z,54.60
2019-03-23T05:44:06.897Z,54.60
2019-03-23T05:44:38.077Z,54.60
2019-03-23T05:45:09.258Z,54.50
2019-03-23T05:45:40.477Z,54.50
2019-03-23T05:46:11.654Z,54.50
2019-03-23T05:46:42.831Z,54.60
2019-03-23T05:47:13.998Z,54.50
2019-03-23T05:47:45.181Z,54.50
2019-03-23T05:48:16.358Z,54.50
2019-03-23T05:48:47.538Z,54.50
2019-03-23T05:49:18.721Z,54.50
2019-03-23T05:49:49.906Z,54.50
2019-03-23T05:50:21.102Z,54.60
2019-03-23T05:50:52.282Z,54.60
2019-03-23T05:51:23.466Z,54.60
2019-03-23T05:51:54.659Z,54.60
2019-03-23T05:52:25.855Z,54.50
2019-03-23T05:52:57.026Z,54.60
2019-03-23T05:53:28.218Z,54.50
2019-03-23T05:53:59.400Z,54.60
2019-03-23T05:54:30.577Z,54.60
2019-03-23T05:55:01.751Z,54.60
2019-03-23T05:55:32.963Z,54.60
2019-03-23T05:56:04.132Z,54.60
2019-03-23T05:56:35.364Z,54.60
2019-03-23T05:57:06.600Z,54.50
2019-03-23T05:57:37.775Z,54.50
2019-03-23T05:58:08.975Z,54.50
2019-03-23T05:58:40.157Z,55.20
2019-03-23T05:59:11.350Z,54.50
2019-03-23T05:59:42.516Z,54.60
2019-03-23T06:00:13.997Z,54.60
2019-03-23T06:00:45.172Z,54.60
2019-03-23T06:01:16.352Z,54.60
2019-03-23T06:01:47.524Z,54.60
2019-03-23T06:02:18.705Z,54.60
2019-03-23T06:02:49.905Z,54.60
2019-03-23T06:03:21.085Z,54.60
2019-03-23T06:03:52.265Z,54.70
2019-03-23T06:04:23.725Z,54.60
2019-03-23T06:04:54.906Z,54.60
2019-03-23T06:05:26.505Z,54.60
2019-03-23T06:05:57.688Z,54.60
2019-03-23T06:06:28.945Z,54.60
2019-03-23T06:07:00.394Z,54.60
2019-03-23T06:07:31.958Z,54.60
2019-03-23T06:08:03.139Z,54.60
2019-03-23T06:08:34.629Z,54.50
2019-03-23T06:09:05.833Z,53.90
2019-03-23T06:09:37.378Z,54.50
2019-03-23T06:10:08.927Z,54.60
2019-03-23T06:10:40.463Z,54.50
2019-03-23T06:11:11.648Z,54.50
2019-03-23T06:11:42.829Z,54.50
2019-03-23T06:12:14.014Z,54.50
2019-03-23T06:12:45.495Z,54.50
2019-03-23T06:13:16.662Z,54.40
2019-03-23T06:13:48.167Z,54.40
2019-03-23T06:14:19.351Z,54.50
2019-03-23T06:14:50.571Z,54.40
2019-03-23T06:15:21.752Z,54.40
2019-03-23T06:15:52.927Z,54.40
2019-03-23T06:16:24.107Z,54.40
2019-03-23T06:16:55.307Z,54.50
2019-03-23T06:17:26.512Z,54.50
2019-03-23T06:17:57.738Z,54.50
2019-03-23T06:18:29.249Z,54.60
2019-03-23T06:19:00.426Z,54.60
2019-03-23T06:19:31.596Z,54.60
2019-03-23T06:20:04.638Z,54.60
2019-03-23T06:20:35.696Z,54.60
2019-03-23T06:21:06.883Z,54.60
2019-03-23T06:21:38.073Z,54.60
2019-03-23T06:22:09.254Z,54.50
2019-03-23T06:22:40.457Z,54.50
2019-03-23T06:23:11.656Z,54.50
2019-03-23T06:23:42.957Z,54.60
2019-03-23T06:24:14.184Z,54.60
2019-03-23T06:24:45.360Z,54.60
2019-03-23T06:25:16.910Z,54.60
2019-03-23T06:25:48.085Z,54.70
2019-03-23T06:26:19.337Z,54.60
2019-03-23T06:26:50.509Z,54.60
2019-03-23T06:27:21.690Z,54.60
2019-03-23T06:27:53.182Z,54.60
2019-03-23T06:28:24.722Z,54.80
2019-03-23T06:28:55.909Z,54.70
2019-03-23T06:29:27.498Z,54.70
2019-03-23T06:29:59.026Z,54.70
2019-03-23T06:30:30.202Z,54.80
2019-03-23T06:31:01.418Z,54.80
2019-03-23T06:31:32.623Z,54.80
2019-03-23T06:32:03.855Z,54.90
2019-03-23T06:32:35.391Z,54.80
2019-03-23T06:33:06.921Z,55.00
2019-03-23T06:33:38.103Z,55.00
2019-03-23T06:34:09.282Z,55.00
2019-03-23T06:34:40.579Z,54.90
2019-03-23T06:35:11.819Z,54.90
2019-03-23T06:35:43.001Z,54.90
2019-03-23T06:36:14.209Z,54.90
2019-03-23T06:36:45.390Z,55.00
2019-03-23T06:37:16.887Z,55.00
2019-03-23T06:37:48.072Z,54.90
2019-03-23T06:38:19.235Z,54.90
2019-03-23T06:38:50.475Z,54.90
2019-03-23T06:39:21.655Z,55.00
2019-03-23T06:39:52.827Z,55.60
2019-03-23T06:40:24.003Z,54.90
2019-03-23T06:40:55.193Z,55.00
2019-03-23T06:41:26.444Z,54.90
2019-03-23T06:41:57.644Z,55.00
2019-03-23T06:42:28.826Z,55.00
2019-03-23T06:43:00.444Z,55.60